Time;durP1;ratioP1;P1;durP2;ratioP2;P2;SDS_P1;SDS_P2;PMS_P1;PMS_P2;Temp;Humidity;BMP_temperature;BMP_pressure;BME280_temperature;BME280_humidity;BME280_pressure;Samples;Min_cycle;Max_cycle;Signal;HPM_P1;HPM_P2
2023/07/09 00:04:45;;;;;;;7.50;4.72;;;17.00;99.90;;;;;;10466391;28;20393;-82
2023/07/09 00:10:18;;;;;;;10.20;5.60;;;16.90;99.90;;;;;;10433074;28;20300;-82
2023/07/09 00:15:39;;;;;;;11.88;5.95;;;17.00;99.90;;;;;;10480996;28;20207;-82
2023/07/09 00:21:02;;;;;;;8.35;5.40;;;17.10;99.90;;;;;;10431986;28;20308;-82
2023/07/09 00:26:24;;;;;;;8.65;5.68;;;16.90;99.90;;;;;;10425210;28;20207;-83
2023/07/09 00:31:45;;;;;;;10.00;6.32;;;16.90;99.90;;;;;;10424863;28;20251;-83
2023/07/09 00:37:12;;;;;;;11.48;7.15;;;16.80;99.90;;;;;;10439443;28;20195;-82
2023/07/09 00:42:34;;;;;;;12.02;7.18;;;16.80;99.90;;;;;;10434570;28;20250;-81
2023/07/09 00:48:12;;;;;;;10.77;7.53;;;16.80;1.00;;;;;;10437830;28;20219;-83
2023/07/09 00:53:34;;;;;;;11.32;6.30;;;16.70;1.00;;;;;;10438220;28;20206;-81
2023/07/09 00:59:00;;;;;;;11.98;5.90;;;16.50;99.90;;;;;;10444929;28;20217;-82
2023/07/09 01:04:23;;;;;;;9.30;5.63;;;16.40;1.00;;;;;;10431389;28;20196;-82
2023/07/09 01:09:45;;;;;;;8.73;5.30;;;;;;;;;;10466386;28;20788;-82
2023/07/09 01:15:08;;;;;;;8.48;5.63;;;16.10;1.00;;;;;;10458896;28;20250;-82
2023/07/09 01:20:31;;;;;;;8.15;5.50;;;16.00;1.00;;;;;;10441560;28;20218;-82
2023/07/09 01:25:54;;;;;;;8.93;5.25;;;15.90;1.00;;;;;;10436774;28;20194;-82
2023/07/09 01:31:17;;;;;;;9.60;5.63;;;15.90;1.00;;;;;;10476077;28;20229;-84
2023/07/09 01:36:40;;;;;;;12.80;5.78;;;15.90;1.00;;;;;;10450832;28;20489;-82
2023/07/09 01:42:02;;;;;;;9.63;5.55;;;15.80;1.00;;;;;;10437230;28;20206;-82
2023/07/09 01:47:24;;;;;;;10.43;6.07;;;15.80;1.00;;;;;;10453866;28;20205;-83
2023/07/09 01:52:49;;;;;;;13.75;6.07;;;15.80;1.00;;;;;;10422826;28;20230;-82
2023/07/09 01:58:11;;;;;;;10.27;6.22;;;15.80;1.00;;;;;;10408644;28;20194;-82
2023/07/09 02:03:32;;;;;;;12.32;6.15;;;15.90;1.00;;;;;;10421767;28;20214;-83
2023/07/09 02:08:53;;;;;;;10.02;5.50;;;15.90;1.00;;;;;;10432245;28;20228;-82
2023/07/09 02:14:15;;;;;;;10.10;6.30;;;15.80;1.00;;;;;;10457664;28;20199;-82
2023/07/09 02:19:37;;;;;;;9.25;6.47;;;15.80;1.00;;;;;;10453189;28;20210;-82
2023/07/09 02:24:59;;;;;;;11.43;7.03;;;15.80;1.00;;;;;;10490490;28;20190;-82
2023/07/09 02:30:20;;;;;;;13.48;7.40;;;15.80;1.00;;;;;;10473984;28;20510;-83
2023/07/09 02:35:43;;;;;;;14.55;7.90;;;15.70;99.90;;;;;;10518330;28;20258;-82
2023/07/09 02:41:05;;;;;;;11.27;8.18;;;15.70;99.90;;;;;;10503240;28;20198;-84
2023/07/09 02:46:26;;;;;;;14.18;7.88;;;15.70;1.00;;;;;;10460230;28;20217;-83
2023/07/09 02:51:47;;;;;;;12.23;7.40;;;15.60;1.00;;;;;;10450553;28;20243;-82
2023/07/09 02:57:09;;;;;;;10.75;7.35;;;15.50;1.00;;;;;;10434497;28;20274;-82
2023/07/09 03:02:30;;;;;;;11.45;7.55;;;15.60;1.00;;;;;;10421139;28;20229;-82
2023/07/09 03:07:51;;;;;;;11.07;7.00;;;15.40;1.00;;;;;;10437415;28;20394;-84
2023/07/09 03:13:14;;;;;;;10.55;7.65;;;15.60;1.00;;;;;;10475663;28;20401;-84
2023/07/09 03:18:36;;;;;;;11.77;8.60;;;15.50;1.00;;;;;;10461020;28;20247;-83
2023/07/09 03:23:57;;;;;;;10.98;8.02;;;15.60;1.00;;;;;;10469853;28;20293;-83
2023/07/09 03:29:19;;;;;;;12.45;7.70;;;15.60;1.00;;;;;;10436916;28;20226;-83
2023/07/09 03:34:43;;;;;;;10.73;7.75;;;15.70;1.00;;;;;;10458077;28;20201;-84
2023/07/09 03:40:05;;;;;;;13.10;7.90;;;15.60;1.00;;;;;;10478675;28;20245;-83
2023/07/09 03:45:27;;;;;;;10.73;6.93;;;15.60;1.00;;;;;;10463964;28;20535;-83
2023/07/09 03:50:49;;;;;;;8.98;6.00;;;15.40;1.00;;;;;;10467777;28;20268;-84
2023/07/09 03:56:11;;;;;;;10.93;7.05;;;15.30;1.00;;;;;;10462348;28;20228;-83
2023/07/09 04:01:32;;;;;;;10.48;5.95;;;15.30;1.00;;;;;;10464117;28;20524;-83
2023/07/09 04:06:53;;;;;;;8.25;6.18;;;15.30;1.00;;;;;;10466888;28;20210;-83
2023/07/09 04:12:16;;;;;;;12.07;6.57;;;15.40;1.00;;;;;;10475556;28;20238;-83
2023/07/09 04:17:37;;;;;;;14.23;8.07;;;15.50;1.00;;;;;;10437975;28;20497;-84
2023/07/09 04:22:59;;;;;;;12.80;8.48;;;15.70;1.00;;;;;;10480376;28;20270;-84
2023/07/09 04:28:20;;;;;;;15.15;9.50;;;15.80;30.70;;;;;;10495415;28;20218;-83
2023/07/09 04:33:43;;;;;;;12.30;8.35;;;16.10;99.90;;;;;;10479852;28;20216;-84
2023/07/09 04:39:04;;;;;;;10.65;6.72;;;16.30;99.90;;;;;;10465210;28;20348;-83
2023/07/09 04:44:26;;;;;;;8.10;5.70;;;16.50;99.90;;;;;;10461736;28;20203;-83
2023/07/09 04:49:47;;;;;;;9.00;5.97;;;16.70;99.90;;;;;;10464911;28;20247;-82
2023/07/09 04:55:09;;;;;;;8.75;5.57;;;16.90;43.80;;;;;;10459904;28;20446;-82
2023/07/09 05:00:30;;;;;;;8.95;5.90;;;17.00;1.00;;;;;;10464904;28;20214;-82
2023/07/09 05:05:53;;;;;;;5.82;4.07;;;17.20;1.00;;;;;;10479040;28;20199;-82
2023/07/09 05:11:15;;;;;;;3.83;3.13;;;17.30;1.00;;;;;;10467683;28;20583;-82
2023/07/09 05:16:37;;;;;;;5.20;3.15;;;17.50;99.90;;;;;;10460361;28;20516;-84
2023/07/09 05:21:59;;;;;;;6.15;3.20;;;17.60;99.90;;;;;;10463680;28;20443;-84
2023/07/09 05:27:20;;;;;;;5.25;2.83;;;17.70;58.50;;;;;;10443016;28;20202;-83
2023/07/09 05:32:41;;;;;;;2.95;2.50;;;17.90;76.50;;;;;;10463745;28;20199;-83
2023/07/09 05:38:03;;;;;;;3.40;2.42;;;17.90;28.00;;;;;;10465770;28;20199;-83
2023/07/09 05:43:24;;;;;;;3.10;2.60;;;18.10;1.00;;;;;;10483938;28;20204;-84
2023/07/09 05:48:46;;;;;;;5.20;2.90;;;18.40;1.00;;;;;;10436308;28;20267;-84
2023/07/09 05:54:07;;;;;;;4.82;3.05;;;18.50;1.00;;;;;;10425905;28;20498;-83
2023/07/09 05:59:28;;;;;;;6.60;2.97;;;18.70;1.00;;;;;;10493389;28;20502;-83
2023/07/09 06:04:50;;;;;;;3.03;2.47;;;19.00;1.00;;;;;;10476568;28;20211;-82
2023/07/09 06:10:11;;;;;;;4.55;2.90;;;19.20;1.00;;;;;;10474504;28;20231;-83
2023/07/09 06:15:33;;;;;;;3.70;2.22;;;19.30;1.00;;;;;;10459863;28;20199;-84
2023/07/09 06:20:56;;;;;;;2.47;2.20;;;19.60;1.00;;;;;;10457783;28;20212;-83
2023/07/09 06:26:19;;;;;;;2.65;2.15;;;19.70;1.00;;;;;;10508673;28;20199;-83
2023/07/09 06:31:42;;;;;;;3.63;2.10;;;20.00;1.00;;;;;;10503316;28;20219;-84
2023/07/09 06:37:05;;;;;;;3.45;1.98;;;20.30;1.00;;;;;;10453894;28;20203;-86
2023/07/09 06:42:26;;;;;;;2.10;1.63;;;20.60;99.90;;;;;;10505179;28;20279;-86
2023/07/09 06:48:00;;;;;;;2.60;1.67;;;21.20;99.90;;;;;;10422679;28;20200;-85
2023/07/09 06:53:22;;;;;;;2.45;1.40;;;21.70;99.90;;;;;;10420001;28;20294;-82
2023/07/09 06:58:47;;;;;;;1.48;1.25;;;;;;;;;;10420492;28;20276;-84
2023/07/09 07:04:09;;;;;;;1.58;1.30;;;23.30;1.00;;;;;;10440076;28;20272;-83
2023/07/09 07:09:33;;;;;;;1.75;1.60;;;24.60;99.90;;;;;;10447889;28;20461;-85
2023/07/09 07:14:55;;;;;;;2.03;1.50;;;24.50;99.90;;;;;;10440923;28;20188;-82
2023/07/09 07:20:17;;;;;;;2.35;1.20;;;;;;;;;;10482714;28;20198;-85
2023/07/09 07:25:38;;;;;;;3.15;1.60;;;25.50;99.90;;;;;;10489563;28;20203;-83
2023/07/09 07:31:05;;;;;;;5.28;2.13;;;26.00;99.90;;;;;;10509659;28;20344;-84
2023/07/09 07:36:27;;;;;;;13.43;2.33;;;;;;;;;;10464138;28;20246;-83
2023/07/09 07:41:50;;;;;;;2.75;1.85;;;26.60;99.90;;;;;;10460416;28;20256;-83
2023/07/09 07:47:12;;;;;;;2.67;2.10;;;26.70;99.90;;;;;;10440515;28;20461;-83
2023/07/09 07:52:37;;;;;;;2.42;1.58;;;27.20;99.90;;;;;;10425671;28;20255;-83
2023/07/09 07:57:59;;;;;;;4.63;2.20;;;28.00;99.90;;;;;;10442015;28;20223;-83
2023/07/09 08:03:20;;;;;;;2.35;1.85;;;28.10;99.90;;;;;;10438843;28;20445;-83
2023/07/09 08:08:42;;;;;;;1.80;1.50;;;;;;;;;;10428360;28;20208;-83
2023/07/09 08:14:03;;;;;;;1.73;1.52;;;28.50;99.90;;;;;;10440011;28;20461;-84
2023/07/09 08:19:25;;;;;;;2.15;1.60;;;28.80;99.90;;;;;;10458125;28;20389;-83
2023/07/09 08:24:47;;;;;;;1.67;1.48;;;29.00;99.90;;;;;;10466140;28;20267;-84
2023/07/09 08:30:09;;;;;;;3.30;1.75;;;29.40;99.90;;;;;;10497511;28;20231;-84
2023/07/09 08:35:32;;;;;;;2.17;1.45;;;29.80;99.90;;;;;;10473358;28;20199;-84
2023/07/09 08:41:02;;;;;;;3.63;1.70;;;29.90;99.90;;;;;;10465710;28;20227;-83
2023/07/09 08:46:34;;;;;;;4.22;1.42;;;30.30;99.90;;;;;;10456536;28;20197;-84
2023/07/09 08:51:57;;;;;;;5.88;1.60;;;30.40;99.90;;;;;;10451159;28;20252;-84
2023/07/09 08:57:27;;;;;;;1.52;1.35;;;30.60;99.90;;;;;;10464695;28;20238;-84
2023/07/09 09:02:48;;;;;;;1.52;1.35;;;30.50;99.90;;;;;;10445914;28;20266;-84
2023/07/09 09:08:22;;;;;;;1.75;1.60;;;30.80;99.90;;;;;;10464498;28;20207;-84
2023/07/09 09:13:45;;;;;;;1.67;1.45;;;31.00;99.90;;;;;;10464149;28;20216;-84
2023/07/09 09:19:20;;;;;;;1.83;1.27;;;31.40;99.90;;;;;;10448882;28;20503;-84
2023/07/09 09:24:53;;;;;;;2.38;1.80;;;31.40;99.90;;;;;;10449803;28;20255;-84
2023/07/09 09:30:21;;;;;;;1.30;1.17;;;31.60;99.90;;;;;;10422479;28;20494;-83
2023/07/09 09:35:45;;;;;;;1.80;1.20;;;31.90;99.90;;;;;;10449766;28;20393;-84
2023/07/09 09:41:15;;;;;;;1.30;1.20;;;32.10;99.90;;;;;;10434576;28;20521;-83
2023/07/09 09:46:37;;;;;;;1.10;1.00;;;32.00;99.90;;;;;;10442299;28;20204;-84
2023/07/09 09:52:03;;;;;;;1.85;1.27;;;31.80;99.90;;;;;;10466711;28;20266;-83
2023/07/09 09:57:25;;;;;;;1.17;1.10;;;32.00;99.90;;;;;;10476798;28;20207;-83
2023/07/09 10:02:47;;;;;;;4.18;1.48;;;31.80;99.90;;;;;;10458030;28;20200;-84
2023/07/09 10:08:33;;;;;;;1.50;1.40;;;32.00;99.90;;;;;;10434986;28;20262;-84
2023/07/09 10:13:59;;;;;;;1.92;1.58;;;32.00;99.90;;;;;;10449626;28;20210;-84
2023/07/09 10:19:40;;;;;;;3.70;1.67;;;32.00;99.90;;;;;;10452939;28;20200;-84
2023/07/09 10:25:37;;;;;;;1.98;1.75;;;32.30;99.90;;;;;;10461935;28;20279;-83
2023/07/09 10:31:25;;;;;;;1.55;1.45;;;32.60;99.90;;;;;;10461959;28;20295;-83
2023/07/09 10:37:24;;;;;;;1.40;1.30;;;32.70;99.90;;;;;;10442406;28;20377;-83
2023/07/09 10:42:50;;;;;;;1.58;1.48;;;32.30;99.90;;;;;;10437577;28;20191;-84
2023/07/09 10:48:19;;;;;;;1.95;1.60;;;32.00;99.90;;;;;;10439676;28;20218;-84
2023/07/09 10:53:46;;;;;;;3.55;1.60;;;32.00;99.90;;;;;;10455852;28;20259;-83
2023/07/09 10:59:29;;;;;;;1.55;1.30;;;32.20;99.90;;;;;;10451299;28;20211;-86
2023/07/09 11:04:58;;;;;;;1.52;1.38;;;32.50;99.90;;;;;;10437455;28;20219;-88
2023/07/09 11:10:28;;;;;;;0.95;0.90;;;32.40;99.90;;;;;;10441647;28;20238;-88
2023/07/09 11:15:54;;;;;;;1.70;1.42;;;32.60;99.90;;;;;;10472686;28;20196;-84
2023/07/09 11:21:17;;;;;;;1.38;1.27;;;32.60;99.90;;;;;;10454871;28;20389;-82
2023/07/09 11:26:47;;;;;;;1.20;1.10;;;32.70;99.90;;;;;;10477803;28;20215;-82
2023/07/09 11:32:09;;;;;;;5.45;1.65;;;32.60;99.90;;;;;;10466283;28;20234;-84
2023/07/09 11:37:31;;;;;;;1.40;1.30;;;32.90;99.90;;;;;;10453607;28;20227;-85
2023/07/09 11:42:55;;;;;;;1.85;1.70;;;32.80;99.90;;;;;;10465573;28;20195;-86
2023/07/09 11:48:29;;;;;;;2.33;1.55;;;32.40;99.90;;;;;;10452762;28;20279;-84
2023/07/09 11:53:53;;;;;;;2.38;1.58;;;32.40;99.90;;;;;;10491975;28;20261;-85
2023/07/09 11:59:15;;;;;;;1.60;1.30;;;32.20;99.90;;;;;;10467565;28;20490;-87
2023/07/09 12:04:37;;;;;;;1.90;1.33;;;32.20;99.90;;;;;;10480927;28;20206;-83
2023/07/09 12:10:02;;;;;;;2.47;1.33;;;32.20;99.90;;;;;;10439850;28;20527;-83
2023/07/09 12:15:27;;;;;;;1.38;1.20;;;32.20;99.90;;;;;;10425383;28;20379;-83
2023/07/09 12:20:51;;;;;;;1.92;1.73;;;31.90;99.90;;;;;;10439054;28;20207;-83
2023/07/09 12:26:16;;;;;;;2.65;1.40;;;31.50;99.90;;;;;;10458680;28;20199;-83
2023/07/09 12:31:39;;;;;;;1.60;1.50;;;31.60;99.90;;;;;;10451690;28;20227;-86
2023/07/09 12:37:00;;;;;;;2.05;1.42;;;31.00;99.90;;;;;;10462838;28;20192;-83
2023/07/09 12:42:31;;;;;;;2.17;1.55;;;30.70;99.90;;;;;;10428035;28;20195;-84
2023/07/09 12:47:53;;;;;;;1.67;1.38;;;31.00;99.90;;;;;;10465288;28;20196;-82
2023/07/09 12:53:22;;;;;;;1.50;1.40;;;31.40;99.90;;;;;;10446152;28;20247;-84
2023/07/09 12:58:44;;;;;;;1.50;1.40;;;31.40;99.90;;;;;;10478723;28;20529;-83
2023/07/09 13:04:08;;;;;;;2.63;1.45;;;31.00;99.90;;;;;;10422225;28;20427;-84
2023/07/09 13:09:30;;;;;;;1.73;1.60;;;30.70;99.90;;;;;;10453906;28;20287;-84
2023/07/09 13:14:55;;;;;;;4.15;1.50;;;30.70;99.90;;;;;;10423851;28;20200;-83
2023/07/09 13:20:18;;;;;;;2.28;1.45;;;30.60;99.90;;;;;;10439017;28;20268;-84
2023/07/09 13:25:40;;;;;;;1.42;1.23;;;30.50;99.90;;;;;;10458215;28;20274;-87
2023/07/09 13:31:19;;;;;;;3.25;1.90;;;30.60;99.90;;;;;;10478358;28;20442;-84
2023/07/09 13:36:40;;;;;;;1.63;1.52;;;30.80;99.90;;;;;;10465703;28;20250;-83
2023/07/09 13:42:01;;;;;;;2.85;2.03;;;30.90;99.90;;;;;;10477540;28;20218;-83
2023/07/09 13:47:22;;;;;;;1.73;1.50;;;30.70;99.90;;;;;;10446912;28;20203;-89
2023/07/09 13:52:46;;;;;;;3.67;1.77;;;30.60;99.90;;;;;;10462757;28;20254;-84
2023/07/09 13:58:12;;;;;;;1.95;1.80;;;30.60;99.90;;;;;;10476685;28;20188;-82
2023/07/09 14:03:35;;;;;;;1.70;1.60;;;30.20;99.90;;;;;;10459459;28;20357;-89
2023/07/09 14:08:56;;;;;;;2.00;1.75;;;30.30;99.90;;;;;;10407765;28;20200;-86
2023/07/09 14:14:23;;;;;;;1.63;1.50;;;30.30;99.90;;;;;;10466059;28;20199;-83
2023/07/09 14:19:45;;;;;;;1.70;1.60;;;30.40;99.90;;;;;;10446080;28;20210;-84
2023/07/09 14:25:07;;;;;;;1.52;1.42;;;30.50;99.90;;;;;;10446211;28;20241;-84
2023/07/09 14:30:28;;;;;;;2.03;1.50;;;30.40;99.90;;;;;;10461771;28;20220;-84
2023/07/09 14:35:50;;;;;;;2.25;1.60;;;30.20;99.90;;;;;;10487979;28;20394;-83
2023/07/09 14:41:23;;;;;;;2.05;1.67;;;30.30;99.90;;;;;;10434794;28;20272;-86
2023/07/09 14:46:44;;;;;;;1.90;1.52;;;30.20;99.90;;;;;;10420190;28;20395;-85
2023/07/09 14:52:13;;;;;;;2.33;1.60;;;30.10;99.90;;;;;;10446001;28;20248;-83
2023/07/09 14:57:36;;;;;;;4.05;1.52;;;30.00;99.90;;;;;;10420497;28;20193;-86
2023/07/09 15:02:57;;;;;;;2.50;1.90;;;29.80;99.90;;;;;;10420022;28;20196;-85
2023/07/09 15:08:25;;;;;;;3.42;1.85;;;29.30;99.90;;;;;;10439164;28;20204;-87
2023/07/09 15:13:46;;;;;;;3.30;1.80;;;29.10;99.90;;;;;;10461461;28;20227;-83
2023/07/09 15:19:15;;;;;;;2.63;1.95;;;28.90;99.90;;;;;;10457871;28;20200;-87
2023/07/09 15:24:36;;;;;;;4.38;1.63;;;28.70;99.90;;;;;;10488190;28;20210;-84
2023/07/09 15:29:58;;;;;;;4.45;1.83;;;28.50;99.90;;;;;;10468994;28;20502;-86
2023/07/09 15:35:19;;;;;;;2.05;1.80;;;28.60;99.90;;;;;;10497320;28;20191;-88
2023/07/09 15:40:41;;;;;;;2.05;1.85;;;28.60;99.90;;;;;;10518006;28;20203;-87
2023/07/09 15:46:03;;;;;;;3.75;1.80;;;28.60;99.90;;;;;;10475741;28;20195;-84
2023/07/09 15:51:25;;;;;;;2.10;1.90;;;28.50;99.90;;;;;;10462595;28;20248;-87
2023/07/09 15:56:49;;;;;;;2.63;1.80;;;28.30;99.90;;;;;;10467724;28;20202;-83
2023/07/09 16:02:13;;;;;;;3.53;1.83;;;28.20;99.90;;;;;;10481649;28;20246;-83
2023/07/09 16:07:35;;;;;;;3.50;2.00;;;28.00;99.90;;;;;;10466001;28;20203;-86
2023/07/09 16:12:57;;;;;;;2.28;1.60;;;28.10;99.90;;;;;;10481448;28;20231;-86
2023/07/09 16:18:19;;;;;;;7.05;2.08;;;28.00;99.90;;;;;;10439971;28;20283;-83
2023/07/09 16:23:41;;;;;;;2.55;1.80;;;28.00;99.90;;;;;;10456025;28;20195;-83
2023/07/09 16:29:13;;;;;;;3.78;2.55;;;28.10;99.90;;;;;;10481283;28;20191;-83
2023/07/09 16:34:34;;;;;;;4.15;2.00;;;28.00;99.90;;;;;;10467609;28;20286;-90
2023/07/09 16:39:56;;;;;;;3.53;2.03;;;27.80;99.90;;;;;;10468625;28;20198;-88
2023/07/09 16:45:19;;;;;;;2.85;2.00;;;27.80;99.90;;;;;;10494851;28;20243;-88
2023/07/09 16:50:41;;;;;;;3.10;2.05;;;27.60;99.90;;;;;;10464130;28;20598;-90
2023/07/09 16:56:03;;;;;;;2.25;1.92;;;27.40;99.90;;;;;;10424342;28;20223;-89
2023/07/09 17:01:25;;;;;;;2.65;2.05;;;27.30;99.90;;;;;;10440728;28;20224;-88
2023/07/09 17:06:46;;;;;;;3.33;2.10;;;27.30;99.90;;;;;;10449770;28;20523;-84
2023/07/09 17:12:11;;;;;;;2.50;2.30;;;27.20;99.90;;;;;;10478902;28;20518;-86
2023/07/09 17:17:32;;;;;;;2.22;1.90;;;27.10;99.90;;;;;;10451115;28;20203;-89
2023/07/09 17:22:56;;;;;;;4.15;2.40;;;26.90;99.90;;;;;;10433375;28;20205;-84
2023/07/09 17:28:23;;;;;;;2.88;2.42;;;26.80;99.90;;;;;;10437545;28;20195;-86
2023/07/09 17:33:45;;;;;;;4.13;2.70;;;26.60;99.90;;;;;;10439619;28;20228;-84
2023/07/09 17:39:19;;;;;;;3.28;2.72;;;26.50;99.90;;;;;;10459694;28;20202;-88
2023/07/09 17:44:41;;;;;;;5.25;2.78;;;26.40;99.90;;;;;;10473011;28;20200;-85
2023/07/09 17:50:12;;;;;;;3.17;2.10;;;26.20;99.90;;;;;;10472197;28;20244;-84
2023/07/09 17:55:33;;;;;;;2.80;2.10;;;26.10;99.90;;;;;;10463889;28;20235;-87
2023/07/09 18:00:59;;;;;;;3.28;2.30;;;25.90;99.90;;;;;;10477584;28;20192;-85
2023/07/09 18:06:21;;;;;;;6.15;2.28;;;25.70;99.90;;;;;;10462032;28;20257;-83
2023/07/09 18:11:42;;;;;;;3.22;2.25;;;25.60;99.90;;;;;;10463400;28;20450;-85
2023/07/09 18:17:13;;;;;;;2.38;2.03;;;25.40;99.90;;;;;;10477500;28;20380;-85
2023/07/09 18:22:34;;;;;;;3.10;2.63;;;25.30;99.90;;;;;;10426775;28;20275;-85
2023/07/09 18:28:02;;;;;;;3.38;2.75;;;25.30;99.90;;;;;;10475961;28;20192;-84
2023/07/09 18:33:23;;;;;;;7.00;2.50;;;25.10;99.90;;;;;;10467960;28;20309;-83
2023/07/09 18:38:45;;;;;;;2.97;2.25;;;25.00;99.90;;;;;;10474421;28;20223;-85
2023/07/09 18:44:20;;;;;;;3.58;3.00;;;24.90;99.90;;;;;;10462726;28;20558;-83
2023/07/09 18:49:42;;;;;;;5.75;2.85;;;24.70;99.90;;;;;;10451235;28;20248;-82
2023/07/09 18:55:15;;;;;;;4.22;2.83;;;24.60;99.90;;;;;;10434931;28;20200;-83
2023/07/09 19:00:37;;;;;;;5.15;3.35;;;24.60;99.90;;;;;;10441775;28;20272;-86
2023/07/09 19:05:58;;;;;;;3.97;3.15;;;24.50;99.90;;;;;;10432015;28;20196;-83
2023/07/09 19:11:22;;;;;;;4.28;3.70;;;24.40;99.90;;;;;;10449752;28;20231;-83
2023/07/09 19:16:55;;;;;;;4.75;3.08;;;24.30;99.90;;;;;;10440039;28;20495;-82
2023/07/09 19:22:19;;;;;;;4.50;3.40;;;24.20;99.90;;;;;;10464140;28;20453;-82
2023/07/09 19:27:40;;;;;;;4.15;3.08;;;24.10;99.90;;;;;;10462408;28;20201;-83
2023/07/09 19:33:01;;;;;;;8.95;4.25;;;24.00;99.90;;;;;;10482629;28;20406;-81
2023/07/09 19:38:22;;;;;;;4.57;3.22;;;23.90;99.90;;;;;;10468253;28;20204;-81
2023/07/09 19:43:44;;;;;;;6.30;4.28;;;23.70;99.90;;;;;;10481089;28;20282;-82
2023/07/09 19:49:10;;;;;;;5.75;4.38;;;23.70;99.90;;;;;;10453673;28;20235;-88
2023/07/09 19:54:31;;;;;;;8.70;4.85;;;23.60;99.90;;;;;;10463319;28;20391;-83
2023/07/09 19:59:52;;;;;;;5.15;4.10;;;23.50;99.90;;;;;;10482138;28;20278;-82
2023/07/09 20:05:16;;;;;;;4.82;3.70;;;23.40;99.90;;;;;;10451225;28;20543;-84
2023/07/09 20:10:38;;;;;;;8.23;5.28;;;23.20;99.90;;;;;;10440335;28;20220;-83
2023/07/09 20:16:00;;;;;;;5.75;4.68;;;23.20;99.90;;;;;;10453695;28;20440;-84
2023/07/09 20:21:26;;;;;;;7.97;5.70;;;23.10;99.90;;;;;;10445449;28;20188;-83
2023/07/09 20:26:47;;;;;;;6.25;4.90;;;22.90;99.90;;;;;;10450884;28;20199;-86
2023/07/09 20:32:18;;;;;;;7.07;4.88;;;22.80;99.90;;;;;;10452962;28;20530;-82
2023/07/09 20:37:40;;;;;;;7.60;4.68;;;22.80;99.90;;;;;;10447858;28;20386;-84
2023/07/09 20:43:01;;;;;;;7.00;4.70;;;22.80;1.00;;;;;;10432955;28;20204;-85
2023/07/09 20:48:23;;;;;;;7.30;5.25;;;22.70;1.00;;;;;;10444084;28;20223;-81
2023/07/09 20:53:45;;;;;;;7.35;4.93;;;22.60;1.00;;;;;;10470425;28;20235;-81
2023/07/09 20:59:15;;;;;;;8.55;5.75;;;22.60;1.00;;;;;;10452729;28;20196;-91
2023/07/09 21:04:38;;;;;;;9.55;5.57;;;22.60;1.00;;;;;;10437093;28;20238;-86
2023/07/09 21:10:00;;;;;;;8.50;5.78;;;;;;;;;;10464197;28;20201;-85
2023/07/09 21:15:31;;;;;;;9.90;5.78;;;22.50;1.00;;;;;;10480251;28;20202;-81
2023/07/09 21:20:52;;;;;;;5.75;5.05;;;22.50;1.00;;;;;;10457930;28;20506;-82
2023/07/09 21:26:15;;;;;;;5.97;4.75;;;;;;;;;;10482846;28;20188;-82
2023/07/09 21:31:36;;;;;;;7.70;6.15;;;22.50;1.00;;;;;;10465505;28;20224;-83
2023/07/09 21:37:00;;;;;;;9.60;5.68;;;22.10;1.00;;;;;;10476467;28;20249;-83
2023/07/09 21:42:21;;;;;;;9.68;5.65;;;22.10;1.00;;;;;;10463841;28;20197;-82
2023/07/09 21:47:43;;;;;;;11.35;6.30;;;22.20;1.00;;;;;;10491655;28;20230;-82
2023/07/09 21:53:15;;;;;;;10.30;6.65;;;22.10;1.00;;;;;;10473480;28;20239;-86
2023/07/09 21:58:36;;;;;;;12.68;6.43;;;22.00;1.00;;;;;;10477714;28;20188;-84
2023/07/09 22:03:58;;;;;;;7.78;5.93;;;21.90;1.00;;;;;;10463412;28;20445;-82
2023/07/09 22:09:20;;;;;;;9.45;6.07;;;21.90;1.00;;;;;;10472052;28;20206;-82
2023/07/09 22:14:41;;;;;;;7.57;5.63;;;21.80;1.00;;;;;;10462444;28;20223;-82
2023/07/09 22:20:04;;;;;;;13.30;5.50;;;21.80;1.00;;;;;;10463237;28;20231;-83
2023/07/09 22:25:27;;;;;;;7.60;5.10;;;;;;;;;;10440055;28;20389;-82
2023/07/09 22:30:50;;;;;;;5.97;4.55;;;;;;;;;;10426991;28;20217;-83
2023/07/09 22:36:12;;;;;;;8.25;5.60;;;21.60;1.00;;;;;;10468338;28;20401;-84
2023/07/09 22:41:33;;;;;;;13.65;6.68;;;21.40;1.00;;;;;;10429596;28;20397;-83
2023/07/09 22:46:55;;;;;;;13.35;7.20;;;21.10;1.00;;;;;;10457335;28;20254;-83
2023/07/09 22:52:17;;;;;;;10.52;7.65;;;21.00;99.90;;;;;;10482175;28;20242;-83
2023/07/09 22:57:39;;;;;;;10.38;7.20;;;21.00;99.90;;;;;;10428967;28;20196;-84
2023/07/09 23:03:09;;;;;;;10.20;6.85;;;20.90;99.90;;;;;;10446660;28;20507;-83
2023/07/09 23:08:30;;;;;;;13.75;6.10;;;;;;;;;;10442935;28;20209;-87
2023/07/09 23:13:52;;;;;;;8.43;6.18;;;;;;;;;;10442771;28;20406;-82
2023/07/09 23:19:25;;;;;;;8.05;6.95;;;;;;;;;;10456709;28;20204;-83
2023/07/09 23:24:49;;;;;;;10.23;6.78;;;;;;;;;;10456471;28;20212;-82
2023/07/09 23:30:18;;;;;;;11.02;6.22;;;20.50;99.90;;;;;;10441626;28;20218;-82
2023/07/09 23:35:41;;;;;;;9.57;6.00;;;;;;;;;;10481230;28;20204;-83
2023/07/09 23:41:06;;;;;;;8.88;6.38;;;;;;;;;;10482276;28;20203;-81
2023/07/09 23:46:32;;;;;;;9.88;6.75;;;;;;;;;;10466274;28;20192;-82
2023/07/09 23:51:54;;;;;;;11.55;7.22;;;;;;;;;;10430129;28;20238;-82
2023/07/09 23:57:15;;;;;;;8.93;6.63;;;;;;;;;;10458998;28;20245;-82
